sensor_id;sensor_type;location;lat;lon;timestamp;temperature;humidity
13093;DHT22;6612;49.568;11.000;2023-02-01T00:02:15;8.80;61.10
13093;DHT22;6612;49.568;11.000;2023-02-01T00:04:42;8.80;61.30
13093;DHT22;6612;49.568;11.000;2023-02-01T00:07:09;8.80;61.30
13093;DHT22;6612;49.568;11.000;2023-02-01T00:09:36;8.70;61.30
13093;DHT22;6612;49.568;11.000;2023-02-01T00:12:03;8.70;61.40
13093;DHT22;6612;49.568;11.000;2023-02-01T00:14:31;8.70;61.50
13093;DHT22;6612;49.568;11.000;2023-02-01T00:17:04;8.70;61.60
13093;DHT22;6612;49.568;11.000;2023-02-01T00:19:32;8.60;61.50
13093;DHT22;6612;49.568;11.000;2023-02-01T00:21:59;8.70;61.70
13093;DHT22;6612;49.568;11.000;2023-02-01T00:24:26;8.70;61.80
13093;DHT22;6612;49.568;11.000;2023-02-01T00:26:53;8.70;61.90
13093;DHT22;6612;49.568;11.000;2023-02-01T00:29:21;8.70;61.90
13093;DHT22;6612;49.568;11.000;2023-02-01T00:31:51;8.70;62.00
13093;DHT22;6612;49.568;11.000;2023-02-01T00:34:18;8.70;62.10
13093;DHT22;6612;49.568;11.000;2023-02-01T00:36:46;8.70;62.80
13093;DHT22;6612;49.568;11.000;2023-02-01T00:39:15;8.70;62.10
13093;DHT22;6612;49.568;11.000;2023-02-01T00:41:42;8.70;62.10
13093;DHT22;6612;49.568;11.000;2023-02-01T00:44:09;8.70;62.90
13093;DHT22;6612;49.568;11.000;2023-02-01T00:46:36;8.80;62.30
13093;DHT22;6612;49.568;11.000;2023-02-01T00:49:04;8.80;62.30
13093;DHT22;6612;49.568;11.000;2023-02-01T00:51:32;8.80;62.30
13093;DHT22;6612;49.568;11.000;2023-02-01T00:53:59;8.80;62.20
13093;DHT22;6612;49.568;11.000;2023-02-01T00:56:26;8.80;62.20
13093;DHT22;6612;49.568;11.000;2023-02-01T00:58:54;8.70;62.10
13093;DHT22;6612;49.568;11.000;2023-02-01T01:01:22;8.70;62.10
13093;DHT22;6612;49.568;11.000;2023-02-01T01:03:51;8.80;62.30
13093;DHT22;6612;49.568;11.000;2023-02-01T01:06:21;8.70;62.20
13093;DHT22;6612;49.568;11.000;2023-02-01T01:08:50;8.80;62.30
13093;DHT22;6612;49.568;11.000;2023-02-01T01:11:18;8.80;62.30
13093;DHT22;6612;49.568;11.000;2023-02-01T01:13:47;8.80;62.40
13093;DHT22;6612;49.568;11.000;2023-02-01T01:16:14;8.90;62.40
13093;DHT22;6612;49.568;11.000;2023-02-01T01:18:42;8.80;62.30
13093;DHT22;6612;49.568;11.000;2023-02-01T01:21:11;8.80;62.40
13093;DHT22;6612;49.568;11.000;2023-02-01T01:23:41;8.80;62.40
13093;DHT22;6612;49.568;11.000;2023-02-01T01:26:09;8.80;62.50
13093;DHT22;6612;49.568;11.000;2023-02-01T01:28:36;8.80;62.50
13093;DHT22;6612;49.568;11.000;2023-02-01T01:33:30;8.80;61.80
13093;DHT22;6612;49.568;11.000;2023-02-01T01:35:57;8.80;62.50
13093;DHT22;6612;49.568;11.000;2023-02-01T01:38:24;8.80;62.50
13093;DHT22;6612;49.568;11.000;2023-02-01T01:40:52;8.80;62.50
13093;DHT22;6612;49.568;11.000;2023-02-01T01:43:20;8.80;62.00
13093;DHT22;6612;49.568;11.000;2023-02-01T01:45:48;8.80;62.60
13093;DHT22;6612;49.568;11.000;2023-02-01T01:48:21;8.80;62.60
13093;DHT22;6612;49.568;11.000;2023-02-01T01:50:51;8.80;62.70
13093;DHT22;6612;49.568;11.000;2023-02-01T01:53:24;8.80;62.70
13093;DHT22;6612;49.568;11.000;2023-02-01T01:55:56;8.80;62.70
13093;DHT22;6612;49.568;11.000;2023-02-01T01:58:25;8.80;62.70
13093;DHT22;6612;49.568;11.000;2023-02-01T02:00:53;8.80;62.60
13093;DHT22;6612;49.568;11.000;2023-02-01T02:03:23;8.80;62.70
13093;DHT22;6612;49.568;11.000;2023-02-01T02:05:54;8.80;62.70
13093;DHT22;6612;49.568;11.000;2023-02-01T02:08:22;8.80;62.70
13093;DHT22;6612;49.568;11.000;2023-02-01T02:10:51;8.70;62.60
13093;DHT22;6612;49.568;11.000;2023-02-01T02:13:31;8.80;62.70
13093;DHT22;6612;49.568;11.000;2023-02-01T02:16:19;8.80;62.70
13093;DHT22;6612;49.568;11.000;2023-02-01T02:18:57;8.80;62.90
13093;DHT22;6612;49.568;11.000;2023-02-01T02:21:41;8.80;62.80
13093;DHT22;6612;49.568;11.000;2023-02-01T02:27:19;8.80;62.90
13093;DHT22;6612;49.568;11.000;2023-02-01T02:36:17;8.90;62.00
13093;DHT22;6612;49.568;11.000;2023-02-01T02:38:50;8.90;62.60
13093;DHT22;6612;49.568;11.000;2023-02-01T02:41:26;8.80;62.60
13093;DHT22;6612;49.568;11.000;2023-02-01T02:44:16;8.90;62.70
13093;DHT22;6612;49.568;11.000;2023-02-01T02:47:10;8.90;62.70
13093;DHT22;6612;49.568;11.000;2023-02-01T02:49:56;8.80;62.60
13093;DHT22;6612;49.568;11.000;2023-02-01T02:52:46;8.90;62.70
13093;DHT22;6612;49.568;11.000;2023-02-01T02:55:34;8.80;63.40
13093;DHT22;6612;49.568;11.000;2023-02-01T02:58:04;8.90;62.70
13093;DHT22;6612;49.568;11.000;2023-02-01T03:00:50;8.90;62.60
13093;DHT22;6612;49.568;11.000;2023-02-01T03:03:37;8.90;63.40
13093;DHT22;6612;49.568;11.000;2023-02-01T03:06:23;8.90;62.70
13093;DHT22;6612;49.568;11.000;2023-02-01T03:08:52;8.90;62.70
13093;DHT22;6612;49.568;11.000;2023-02-01T03:11:23;8.90;62.70
13093;DHT22;6612;49.568;11.000;2023-02-01T03:14:14;8.80;62.60
13093;DHT22;6612;49.568;11.000;2023-02-01T03:16:44;8.90;62.70
13093;DHT22;6612;49.568;11.000;2023-02-01T03:19:18;8.80;62.60
13093;DHT22;6612;49.568;11.000;2023-02-01T03:21:47;8.80;62.70
13093;DHT22;6612;49.568;11.000;2023-02-01T03:24:20;8.80;62.70
13093;DHT22;6612;49.568;11.000;2023-02-01T03:26:51;8.90;62.90
13093;DHT22;6612;49.568;11.000;2023-02-01T03:29:25;8.80;62.80
13093;DHT22;6612;49.568;11.000;2023-02-01T03:31:54;8.90;62.90
13093;DHT22;6612;49.568;11.000;2023-02-01T03:34:21;8.90;62.80
13093;DHT22;6612;49.568;11.000;2023-02-01T03:36:52;8.90;62.80
13093;DHT22;6612;49.568;11.000;2023-02-01T03:39:29;8.90;62.80
13093;DHT22;6612;49.568;11.000;2023-02-01T03:41:58;8.90;62.80
13093;DHT22;6612;49.568;11.000;2023-02-01T03:44:29;8.90;63.50
13093;DHT22;6612;49.568;11.000;2023-02-01T03:47:01;8.90;62.80
13093;DHT22;6612;49.568;11.000;2023-02-01T03:49:32;8.90;62.10
13093;DHT22;6612;49.568;11.000;2023-02-01T03:52:01;8.90;62.80
13093;DHT22;6612;49.568;11.000;2023-02-01T03:54:30;9.00;62.90
13093;DHT22;6612;49.568;11.000;2023-02-01T03:57:02;8.90;62.90
13093;DHT22;6612;49.568;11.000;2023-02-01T03:59:31;9.00;63.00
13093;DHT22;6612;49.568;11.000;2023-02-01T04:01:57;9.00;62.90
13093;DHT22;6612;49.568;11.000;2023-02-01T04:04:24;8.90;62.80
13093;DHT22;6612;49.568;11.000;2023-02-01T04:06:51;8.90;62.90
13093;DHT22;6612;49.568;11.000;2023-02-01T04:09:18;9.00;62.90
13093;DHT22;6612;49.568;11.000;2023-02-01T04:11:46;9.00;62.90
13093;DHT22;6612;49.568;11.000;2023-02-01T04:14:13;9.00;62.90
13093;DHT22;6612;49.568;11.000;2023-02-01T04:16:40;9.00;62.90
13093;DHT22;6612;49.568;11.000;2023-02-01T04:19:07;9.00;62.90
13093;DHT22;6612;49.568;11.000;2023-02-01T04:21:34;9.00;62.90
13093;DHT22;6612;49.568;11.000;2023-02-01T04:24:01;9.00;62.90
13093;DHT22;6612;49.568;11.000;2023-02-01T04:26:28;9.00;62.90
13093;DHT22;6612;49.568;11.000;2023-02-01T04:28:56;9.00;62.90
13093;DHT22;6612;49.568;11.000;2023-02-01T04:31:23;9.00;63.70
13093;DHT22;6612;49.568;11.000;2023-02-01T04:36:20;8.90;62.20
13093;DHT22;6612;49.568;11.000;2023-02-01T04:38:48;9.00;63.80
13093;DHT22;6612;49.568;11.000;2023-02-01T04:41:15;8.90;62.90
13093;DHT22;6612;49.568;11.000;2023-02-01T04:43:44;8.90;62.90
13093;DHT22;6612;49.568;11.000;2023-02-01T04:46:13;8.90;63.00
13093;DHT22;6612;49.568;11.000;2023-02-01T04:48:40;8.90;63.00
13093;DHT22;6612;49.568;11.000;2023-02-01T04:51:07;8.90;63.00
13093;DHT22;6612;49.568;11.000;2023-02-01T04:53:35;8.90;63.10
13093;DHT22;6612;49.568;11.000;2023-02-01T04:56:02;8.90;63.20
13093;DHT22;6612;49.568;11.000;2023-02-01T04:58:29;8.90;63.20
13093;DHT22;6612;49.568;11.000;2023-02-01T05:00:56;8.90;63.20
13093;DHT22;6612;49.568;11.000;2023-02-01T05:03:24;8.90;63.20
13093;DHT22;6612;49.568;11.000;2023-02-01T05:05:51;8.90;63.30
13093;DHT22;6612;49.568;11.000;2023-02-01T05:08:19;8.80;63.20
13093;DHT22;6612;49.568;11.000;2023-02-01T05:10:48;8.90;63.40
13093;DHT22;6612;49.568;11.000;2023-02-01T05:13:14;8.90;63.40
13093;DHT22;6612;49.568;11.000;2023-02-01T05:15:59;8.80;64.00
13093;DHT22;6612;49.568;11.000;2023-02-01T05:18:27;8.90;63.30
13093;DHT22;6612;49.568;11.000;2023-02-01T05:20:54;8.80;63.20
13093;DHT22;6612;49.568;11.000;2023-02-01T05:23:21;8.80;63.20
13093;DHT22;6612;49.568;11.000;2023-02-01T05:25:48;8.80;63.10
13093;DHT22;6612;49.568;11.000;2023-02-01T05:28:15;8.70;63.10
13093;DHT22;6612;49.568;11.000;2023-02-01T05:30:42;8.80;63.90
13093;DHT22;6612;49.568;11.000;2023-02-01T05:33:08;8.80;63.20
13093;DHT22;6612;49.568;11.000;2023-02-01T05:35:37;8.80;63.10
13093;DHT22;6612;49.568;11.000;2023-02-01T05:38:03;8.80;63.00
13093;DHT22;6612;49.568;11.000;2023-02-01T05:40:30;8.70;62.90
13093;DHT22;6612;49.568;11.000;2023-02-01T05:42:57;8.70;62.20
13093;DHT22;6612;49.568;11.000;2023-02-01T05:45:24;8.70;62.80
13093;DHT22;6612;49.568;11.000;2023-02-01T05:47:51;8.70;62.90
13093;DHT22;6612;49.568;11.000;2023-02-01T05:50:18;8.70;62.90
13093;DHT22;6612;49.568;11.000;2023-02-01T05:52:47;8.60;62.90
13093;DHT22;6612;49.568;11.000;2023-02-01T05:55:14;8.60;62.90
13093;DHT22;6612;49.568;11.000;2023-02-01T05:57:41;8.60;62.90
13093;DHT22;6612;49.568;11.000;2023-02-01T06:00:09;8.60;62.90
13093;DHT22;6612;49.568;11.000;2023-02-01T06:02:36;8.60;62.90
13093;DHT22;6612;49.568;11.000;2023-02-01T06:05:04;8.60;62.90
13093;DHT22;6612;49.568;11.000;2023-02-01T06:07:31;8.50;62.80
13093;DHT22;6612;49.568;11.000;2023-02-01T06:10:00;8.50;62.80
13093;DHT22;6612;49.568;11.000;2023-02-01T06:12:27;8.50;62.80
13093;DHT22;6612;49.568;11.000;2023-02-01T06:14:53;8.50;62.90
13093;DHT22;6612;49.568;11.000;2023-02-01T06:17:20;8.40;62.80
13093;DHT22;6612;49.568;11.000;2023-02-01T06:19:47;8.50;63.00
13093;DHT22;6612;49.568;11.000;2023-02-01T06:22:14;8.50;63.00
13093;DHT22;6612;49.568;11.000;2023-02-01T06:24:41;8.40;62.90
13093;DHT22;6612;49.568;11.000;2023-02-01T06:27:10;8.40;63.00
13093;DHT22;6612;49.568;11.000;2023-02-01T06:29:38;8.40;63.00
13093;DHT22;6612;49.568;11.000;2023-02-01T06:32:05;8.40;63.10
13093;DHT22;6612;49.568;11.000;2023-02-01T06:34:32;8.50;63.20
13093;DHT22;6612;49.568;11.000;2023-02-01T06:36:59;8.40;63.10
13093;DHT22;6612;49.568;11.000;2023-02-01T06:39:26;8.40;63.10
13093;DHT22;6612;49.568;11.000;2023-02-01T06:41:54;8.40;63.10
13093;DHT22;6612;49.568;11.000;2023-02-01T06:44:22;8.50;63.10
13093;DHT22;6612;49.568;11.000;2023-02-01T06:46:49;8.40;63.10
13093;DHT22;6612;49.568;11.000;2023-02-01T06:49:16;8.40;63.10
13093;DHT22;6612;49.568;11.000;2023-02-01T06:51:43;8.40;64.00
13093;DHT22;6612;49.568;11.000;2023-02-01T06:54:10;8.40;63.20
13093;DHT22;6612;49.568;11.000;2023-02-01T06:56:37;8.40;63.20
13093;DHT22;6612;49.568;11.000;2023-02-01T06:59:04;8.40;63.30
13093;DHT22;6612;49.568;11.000;2023-02-01T07:01:33;8.40;63.20
13093;DHT22;6612;49.568;11.000;2023-02-01T07:04:00;8.50;63.40
13093;DHT22;6612;49.568;11.000;2023-02-01T07:06:27;8.50;63.40
13093;DHT22;6612;49.568;11.000;2023-02-01T07:08:54;8.40;64.10
13093;DHT22;6612;49.568;11.000;2023-02-01T07:11:21;8.40;63.40
13093;DHT22;6612;49.568;11.000;2023-02-01T07:13:48;8.40;63.40
13093;DHT22;6612;49.568;11.000;2023-02-01T07:16:17;8.40;63.40
13093;DHT22;6612;49.568;11.000;2023-02-01T07:18:46;8.40;63.50
13093;DHT22;6612;49.568;11.000;2023-02-01T07:21:13;8.40;63.40
13093;DHT22;6612;49.568;11.000;2023-02-01T07:23:40;8.50;63.50
13093;DHT22;6612;49.568;11.000;2023-02-01T07:26:09;8.50;63.60
13093;DHT22;6612;49.568;11.000;2023-02-01T07:28:37;8.40;63.60
13093;DHT22;6612;49.568;11.000;2023-02-01T07:31:05;8.40;63.00
13093;DHT22;6612;49.568;11.000;2023-02-01T07:33:32;8.40;63.60
13093;DHT22;6612;49.568;11.000;2023-02-01T07:36:03;8.40;63.60
13093;DHT22;6612;49.568;11.000;2023-02-01T07:38:31;8.40;63.60
13093;DHT22;6612;49.568;11.000;2023-02-01T07:40:58;8.40;63.60
13093;DHT22;6612;49.568;11.000;2023-02-01T07:43:26;8.40;63.50
13093;DHT22;6612;49.568;11.000;2023-02-01T07:45:53;8.50;63.50
13093;DHT22;6612;49.568;11.000;2023-02-01T07:48:21;8.50;63.40
13093;DHT22;6612;49.568;11.000;2023-02-01T07:50:56;8.50;63.40
13093;DHT22;6612;49.568;11.000;2023-02-01T07:53:24;8.40;63.20
13093;DHT22;6612;49.568;11.000;2023-02-01T07:55:51;8.40;63.20
13093;DHT22;6612;49.568;11.000;2023-02-01T07:58:18;8.40;64.00
13093;DHT22;6612;49.568;11.000;2023-02-01T08:00:45;8.40;63.20
13093;DHT22;6612;49.568;11.000;2023-02-01T08:03:29;8.40;62.80
13093;DHT22;6612;49.568;11.000;2023-02-01T08:05:56;8.40;63.30
13093;DHT22;6612;49.568;11.000;2023-02-01T08:08:24;8.40;63.30
13093;DHT22;6612;49.568;11.000;2023-02-01T08:10:51;8.50;63.90
13093;DHT22;6612;49.568;11.000;2023-02-01T08:13:20;8.50;65.00
13093;DHT22;6612;49.568;11.000;2023-02-01T08:15:47;8.70;65.90
13093;DHT22;6612;49.568;11.000;2023-02-01T08:18:13;8.90;65.70
13093;DHT22;6612;49.568;11.000;2023-02-01T08:20:42;9.10;66.00
13093;DHT22;6612;49.568;11.000;2023-02-01T08:23:11;9.20;65.80
13093;DHT22;6612;49.568;11.000;2023-02-01T08:25:39;9.40;65.70
13093;DHT22;6612;49.568;11.000;2023-02-01T08:28:07;9.50;65.10
13093;DHT22;6612;49.568;11.000;2023-02-01T08:30:34;9.50;64.40
13093;DHT22;6612;49.568;11.000;2023-02-01T08:33:02;9.70;63.10
13093;DHT22;6612;49.568;11.000;2023-02-01T08:35:30;9.70;63.70
13093;DHT22;6612;49.568;11.000;2023-02-01T08:37:56;9.60;63.20
13093;DHT22;6612;49.568;11.000;2023-02-01T08:40:23;9.70;63.20
13093;DHT22;6612;49.568;11.000;2023-02-01T08:42:52;9.90;63.60
13093;DHT22;6612;49.568;11.000;2023-02-01T08:45:20;9.90;64.20
13093;DHT22;6612;49.568;11.000;2023-02-01T08:47:49;10.00;63.60
13093;DHT22;6612;49.568;11.000;2023-02-01T08:50:16;10.10;64.10
13093;DHT22;6612;49.568;11.000;2023-02-01T08:52:43;10.30;64.20
13093;DHT22;6612;49.568;11.000;2023-02-01T08:55:11;10.50;64.30
13093;DHT22;6612;49.568;11.000;2023-02-01T08:57:38;10.60;63.90
13093;DHT22;6612;49.568;11.000;2023-02-01T09:00:09;10.80;63.40
13093;DHT22;6612;49.568;11.000;2023-02-01T09:02:37;10.90;62.60
13093;DHT22;6612;49.568;11.000;2023-02-01T09:05:04;10.90;62.20
13093;DHT22;6612;49.568;11.000;2023-02-01T09:07:32;11.10;62.30
13093;DHT22;6612;49.568;11.000;2023-02-01T09:09:59;11.10;61.80
13093;DHT22;6612;49.568;11.000;2023-02-01T09:12:27;11.20;61.50
13093;DHT22;6612;49.568;11.000;2023-02-01T09:14:54;11.10;60.70
13093;DHT22;6612;49.568;11.000;2023-02-01T09:17:23;11.10;60.40
13093;DHT22;6612;49.568;11.000;2023-02-01T09:19:49;11.10;60.40
13093;DHT22;6612;49.568;11.000;2023-02-01T09:22:16;11.10;60.90
13093;DHT22;6612;49.568;11.000;2023-02-01T09:24:43;11.10;60.90
13093;DHT22;6612;49.568;11.000;2023-02-01T09:27:11;11.10;60.50
13093;DHT22;6612;49.568;11.000;2023-02-01T09:29:37;11.10;60.10
13093;DHT22;6612;49.568;11.000;2023-02-01T09:32:04;11.10;60.00
13093;DHT22;6612;49.568;11.000;2023-02-01T09:34:33;11.00;60.00
13093;DHT22;6612;49.568;11.000;2023-02-01T09:37:01;11.10;60.90
13093;DHT22;6612;49.568;11.000;2023-02-01T09:39:28;11.00;60.10
13093;DHT22;6612;49.568;11.000;2023-02-01T09:42:03;11.00;60.00
13093;DHT22;6612;49.568;11.000;2023-02-01T09:44:50;11.00;59.50
13093;DHT22;6612;49.568;11.000;2023-02-01T09:47:20;11.00;59.00
13093;DHT22;6612;49.568;11.000;2023-02-01T09:49:55;11.00;59.40
13093;DHT22;6612;49.568;11.000;2023-02-01T09:52:27;11.00;59.70
13093;DHT22;6612;49.568;11.000;2023-02-01T09:54:57;11.00;59.10
13093;DHT22;6612;49.568;11.000;2023-02-01T09:57:37;11.00;59.20
13093;DHT22;6612;49.568;11.000;2023-02-01T10:00:16;11.00;59.60
13093;DHT22;6612;49.568;11.000;2023-02-01T10:02:44;11.00;58.80
13093;DHT22;6612;49.568;11.000;2023-02-01T10:05:16;11.00;59.10
13093;DHT22;6612;49.568;11.000;2023-02-01T10:07:58;11.00;58.80
13093;DHT22;6612;49.568;11.000;2023-02-01T10:10:31;11.00;58.50
13093;DHT22;6612;49.568;11.000;2023-02-01T10:13:12;11.20;61.10
13093;DHT22;6612;49.568;11.000;2023-02-01T10:15:57;11.10;59.30
13093;DHT22;6612;49.568;11.000;2023-02-01T10:18:34;11.10;58.40
13093;DHT22;6612;49.568;11.000;2023-02-01T10:21:14;11.10;58.50
13093;DHT22;6612;49.568;11.000;2023-02-01T10:24:02;11.00;58.30
13093;DHT22;6612;49.568;11.000;2023-02-01T10:26:33;11.10;58.10
13093;DHT22;6612;49.568;11.000;2023-02-01T10:29:10;11.00;58.30
13093;DHT22;6612;49.568;11.000;2023-02-01T10:31:40;11.00;58.10
13093;DHT22;6612;49.568;11.000;2023-02-01T10:34:14;10.90;58.20
13093;DHT22;6612;49.568;11.000;2023-02-01T10:36:50;10.90;58.20
13093;DHT22;6612;49.568;11.000;2023-02-01T10:39:18;10.80;58.20
13093;DHT22;6612;49.568;11.000;2023-02-01T10:41:45;10.80;58.40
13093;DHT22;6612;49.568;11.000;2023-02-01T10:44:15;10.70;58.40
13093;DHT22;6612;49.568;11.000;2023-02-01T10:46:43;10.70;58.50
13093;DHT22;6612;49.568;11.000;2023-02-01T10:49:15;10.60;58.70
13093;DHT22;6612;49.568;11.000;2023-02-01T10:51:48;10.60;59.10
13093;DHT22;6612;49.568;11.000;2023-02-01T10:54:19;10.50;59.50
13093;DHT22;6612;49.568;11.000;2023-02-01T10:56:47;10.60;59.80
13093;DHT22;6612;49.568;11.000;2023-02-01T10:59:17;10.50;59.70
13093;DHT22;6612;49.568;11.000;2023-02-01T11:01:46;10.50;59.60
13093;DHT22;6612;49.568;11.000;2023-02-01T11:04:15;10.50;59.40
13093;DHT22;6612;49.568;11.000;2023-02-01T11:06:45;10.50;59.40
13093;DHT22;6612;49.568;11.000;2023-02-01T11:09:18;10.50;59.50
13093;DHT22;6612;49.568;11.000;2023-02-01T11:11:57;10.50;59.50
13093;DHT22;6612;49.568;11.000;2023-02-01T11:14:35;10.50;59.50
13093;DHT22;6612;49.568;11.000;2023-02-01T11:17:17;10.50;59.40
13093;DHT22;6612;49.568;11.000;2023-02-01T11:19:45;10.50;59.30
13093;DHT22;6612;49.568;11.000;2023-02-01T11:22:14;10.40;59.90
13093;DHT22;6612;49.568;11.000;2023-02-01T11:24:44;10.40;59.30
13093;DHT22;6612;49.568;11.000;2023-02-01T11:27:15;10.40;59.40
13093;DHT22;6612;49.568;11.000;2023-02-01T11:29:43;10.30;59.30
13093;DHT22;6612;49.568;11.000;2023-02-01T11:32:13;10.30;59.40
13093;DHT22;6612;49.568;11.000;2023-02-01T11:34:45;10.30;59.60
13093;DHT22;6612;49.568;11.000;2023-02-01T11:37:20;10.30;59.80
13093;DHT22;6612;49.568;11.000;2023-02-01T11:39:54;10.30;60.00
13093;DHT22;6612;49.568;11.000;2023-02-01T11:42:22;10.30;60.10
13093;DHT22;6612;49.568;11.000;2023-02-01T11:44:49;10.40;60.30
13093;DHT22;6612;49.568;11.000;2023-02-01T11:47:21;10.40;60.60
13093;DHT22;6612;49.568;11.000;2023-02-01T11:49:50;10.50;60.80
13093;DHT22;6612;49.568;11.000;2023-02-01T11:52:36;10.50;61.00
13093;DHT22;6612;49.568;11.000;2023-02-01T11:55:29;10.60;61.00
13093;DHT22;6612;49.568;11.000;2023-02-01T11:58:12;10.70;60.70
13093;DHT22;6612;49.568;11.000;2023-02-01T12:00:51;10.80;60.60
13093;DHT22;6612;49.568;11.000;2023-02-01T12:04:01;10.90;60.40
13093;DHT22;6612;49.568;11.000;2023-02-01T12:06:40;10.90;59.90
13093;DHT22;6612;49.568;11.000;2023-02-01T12:09:38;11.00;59.90
13093;DHT22;6612;49.568;11.000;2023-02-01T12:12:17;11.00;59.40
13093;DHT22;6612;49.568;11.000;2023-02-01T12:15:10;11.00;59.30
13093;DHT22;6612;49.568;11.000;2023-02-01T12:18:09;11.00;58.90
13093;DHT22;6612;49.568;11.000;2023-02-01T12:21:02;11.00;58.90
13093;DHT22;6612;49.568;11.000;2023-02-01T12:23:46;10.90;58.90
13093;DHT22;6612;49.568;11.000;2023-02-01T12:26:46;10.90;59.10
13093;DHT22;6612;49.568;11.000;2023-02-01T12:29:27;10.90;59.00
13093;DHT22;6612;49.568;11.000;2023-02-01T12:32:09;10.90;59.10
13093;DHT22;6612;49.568;11.000;2023-02-01T12:34:52;10.90;58.90
13093;DHT22;6612;49.568;11.000;2023-02-01T12:37:31;10.90;58.90
13093;DHT22;6612;49.568;11.000;2023-02-01T12:40:11;10.90;58.90
13093;DHT22;6612;49.568;11.000;2023-02-01T12:42:44;10.90;58.80
13093;DHT22;6612;49.568;11.000;2023-02-01T12:45:15;10.80;58.70
13093;DHT22;6612;49.568;11.000;2023-02-01T12:47:49;10.80;58.80
13093;DHT22;6612;49.568;11.000;2023-02-01T12:50:19;10.80;58.70
13093;DHT22;6612;49.568;11.000;2023-02-01T12:52:49;10.60;58.00
13093;DHT22;6612;49.568;11.000;2023-02-01T12:55:21;10.60;58.50
13093;DHT22;6612;49.568;11.000;2023-02-01T12:57:53;10.60;58.50
13093;DHT22;6612;49.568;11.000;2023-02-01T13:00:25;10.50;58.60
13093;DHT22;6612;49.568;11.000;2023-02-01T13:02:59;10.30;58.90
13093;DHT22;6612;49.568;11.000;2023-02-01T13:05:31;10.40;59.00
13093;DHT22;6612;49.568;11.000;2023-02-01T13:08:04;10.40;59.20
13093;DHT22;6612;49.568;11.000;2023-02-01T13:10:35;10.30;59.30
13093;DHT22;6612;49.568;11.000;2023-02-01T13:13:11;10.30;58.80
13093;DHT22;6612;49.568;11.000;2023-02-01T13:15:43;10.30;59.40
13093;DHT22;6612;49.568;11.000;2023-02-01T13:18:16;10.30;59.40
13093;DHT22;6612;49.568;11.000;2023-02-01T13:20:49;10.30;59.50
13093;DHT22;6612;49.568;11.000;2023-02-01T13:23:25;10.30;59.60
13093;DHT22;6612;49.568;11.000;2023-02-01T13:25:53;10.30;59.60
13093;DHT22;6612;49.568;11.000;2023-02-01T13:28:25;10.20;59.60
13093;DHT22;6612;49.568;11.000;2023-02-01T13:31:09;10.30;59.70
13093;DHT22;6612;49.568;11.000;2023-02-01T13:33:52;10.30;59.60
13093;DHT22;6612;49.568;11.000;2023-02-01T13:36:34;10.30;59.50
13093;DHT22;6612;49.568;11.000;2023-02-01T13:42:16;10.30;59.30
13093;DHT22;6612;49.568;11.000;2023-02-01T13:44:48;10.30;59.40
13093;DHT22;6612;49.568;11.000;2023-02-01T13:47:23;10.30;59.30
13093;DHT22;6612;49.568;11.000;2023-02-01T13:49:51;10.30;59.20
13093;DHT22;6612;49.568;11.000;2023-02-01T13:52:26;10.30;59.40
13093;DHT22;6612;49.568;11.000;2023-02-01T13:55:23;10.30;59.20
13093;DHT22;6612;49.568;11.000;2023-02-01T14:00:42;10.30;59.10
13093;DHT22;6612;49.568;11.000;2023-02-01T14:03:16;10.30;59.00
13093;DHT22;6612;49.568;11.000;2023-02-01T14:06:05;10.40;59.10
13093;DHT22;6612;49.568;11.000;2023-02-01T14:08:46;10.30;58.70
13093;DHT22;6612;49.568;11.000;2023-02-01T14:11:38;10.40;59.00
13093;DHT22;6612;49.568;11.000;2023-02-01T14:17:41;10.30;58.30
13093;DHT22;6612;49.568;11.000;2023-02-01T14:23:28;10.30;58.10
13093;DHT22;6612;49.568;11.000;2023-02-01T14:26:18;10.30;58.10
13093;DHT22;6612;49.568;11.000;2023-02-01T14:29:01;10.30;58.00
13093;DHT22;6612;49.568;11.000;2023-02-01T14:31:42;10.30;58.20
13093;DHT22;6612;49.568;11.000;2023-02-01T14:34:16;10.20;58.00
13093;DHT22;6612;49.568;11.000;2023-02-01T14:36:50;10.20;58.00
13093;DHT22;6612;49.568;11.000;2023-02-01T14:42:21;10.20;57.90
13093;DHT22;6612;49.568;11.000;2023-02-01T14:44:49;10.10;57.60
13093;DHT22;6612;49.568;11.000;2023-02-01T14:47:31;10.10;57.30
13093;DHT22;6612;49.568;11.000;2023-02-01T14:50:21;10.10;57.50
13093;DHT22;6612;49.568;11.000;2023-02-01T14:52:58;9.90;60.10
13093;DHT22;6612;49.568;11.000;2023-02-01T14:55:30;10.00;57.80
13093;DHT22;6612;49.568;11.000;2023-02-01T14:58:02;10.00;57.80
13093;DHT22;6612;49.568;11.000;2023-02-01T15:00:32;10.00;57.90
13093;DHT22;6612;49.568;11.000;2023-02-01T15:03:29;10.00;57.50
13093;DHT22;6612;49.568;11.000;2023-02-01T15:06:00;9.90;58.60
13093;DHT22;6612;49.568;11.000;2023-02-01T15:08:30;10.00;58.00
13093;DHT22;6612;49.568;11.000;2023-02-01T15:11:00;9.90;58.80
13093;DHT22;6612;49.568;11.000;2023-02-01T15:13:28;9.90;58.80
13093;DHT22;6612;49.568;11.000;2023-02-01T15:16:03;9.90;59.50
13093;DHT22;6612;49.568;11.000;2023-02-01T15:18:31;9.90;58.60
13093;DHT22;6612;49.568;11.000;2023-02-01T15:21:01;9.90;58.80
13093;DHT22;6612;49.568;11.000;2023-02-01T15:23:28;9.90;58.80
13093;DHT22;6612;49.568;11.000;2023-02-01T15:25:55;9.80;58.60
13093;DHT22;6612;49.568;11.000;2023-02-01T15:28:23;9.90;58.70
13093;DHT22;6612;49.568;11.000;2023-02-01T15:30:56;9.90;58.70
13093;DHT22;6612;49.568;11.000;2023-02-01T15:33:24;9.80;58.50
13093;DHT22;6612;49.568;11.000;2023-02-01T15:35:52;9.80;58.70
13093;DHT22;6612;49.568;11.000;2023-02-01T15:38:39;9.80;58.70
13093;DHT22;6612;49.568;11.000;2023-02-01T15:41:09;9.80;58.40
13093;DHT22;6612;49.568;11.000;2023-02-01T15:43:41;9.80;58.70
13093;DHT22;6612;49.568;11.000;2023-02-01T15:46:10;9.70;58.60
13093;DHT22;6612;49.568;11.000;2023-02-01T15:48:45;9.70;58.50
13093;DHT22;6612;49.568;11.000;2023-02-01T15:51:15;9.70;58.50
13093;DHT22;6612;49.568;11.000;2023-02-01T15:53:51;9.70;58.60
13093;DHT22;6612;49.568;11.000;2023-02-01T15:56:25;9.70;58.40
13093;DHT22;6612;49.568;11.000;2023-02-01T15:58:55;9.70;58.40
13093;DHT22;6612;49.568;11.000;2023-02-01T16:01:23;9.70;58.50
13093;DHT22;6612;49.568;11.000;2023-02-01T16:04:02;9.70;58.50
13093;DHT22;6612;49.568;11.000;2023-02-01T16:06:31;9.70;58.20
13093;DHT22;6612;49.568;11.000;2023-02-01T16:09:14;9.60;58.30
13093;DHT22;6612;49.568;11.000;2023-02-01T16:11:46;9.60;58.10
13093;DHT22;6612;49.568;11.000;2023-02-01T16:14:14;9.60;58.30
13093;DHT22;6612;49.568;11.000;2023-02-01T16:16:41;9.60;58.30
13093;DHT22;6612;49.568;11.000;2023-02-01T16:19:08;9.50;58.10
13093;DHT22;6612;49.568;11.000;2023-02-01T16:21:35;9.50;58.10
13093;DHT22;6612;49.568;11.000;2023-02-01T16:24:03;9.50;58.20
13093;DHT22;6612;49.568;11.000;2023-02-01T16:26:31;9.50;58.20
13093;DHT22;6612;49.568;11.000;2023-02-01T16:28:58;9.50;58.80
13093;DHT22;6612;49.568;11.000;2023-02-01T16:31:30;9.50;58.20
13093;DHT22;6612;49.568;11.000;2023-02-01T16:33:58;9.50;58.10
13093;DHT22;6612;49.568;11.000;2023-02-01T16:36:25;9.50;58.20
13093;DHT22;6612;49.568;11.000;2023-02-01T16:38:52;9.50;58.30